Time;durP1;ratioP1;P1;durP2;ratioP2;P2;SDS_P1;SDS_P2;PMS_P1;PMS_P2;Temp;Humidity;BMP_temperature;BMP_pressure;BME280_temperature;BME280_humidity;BME280_pressure;Samples;Min_cycle;Max_cycle;Signal;HPM_P1;HPM_P2
2023/03/11 00:01:14;;;;;;;5.35;1.00;;;3.20;99.90;;;;;;5037980;23;20062;-88
2023/03/11 00:03:55;;;;;;;3.47;0.93;;;2.50;99.90;;;;;;5044306;23;20012;-89
2023/03/11 00:06:25;;;;;;;9.23;1.55;;;3.40;99.90;;;;;;4995751;28;20034;-89
2023/03/11 00:08:57;;;;;;;6.22;1.05;;;3.00;99.90;;;;;;4995716;28;20113;-89
2023/03/11 00:11:26;;;;;;;7.43;1.17;;;2.60;99.90;;;;;;4995255;28;20090;-89
2023/03/11 00:13:57;;;;;;;6.43;0.75;;;3.10;99.90;;;;;;4995959;28;20058;-89
2023/03/11 00:16:30;;;;;;;5.57;1.30;;;2.50;99.90;;;;;;4995605;28;20077;-89
2023/03/11 00:18:59;;;;;;;9.13;2.65;;;3.50;99.90;;;;;;4995237;28;20030;-88
2023/03/11 00:21:27;;;;;;;6.25;1.20;;;2.60;99.90;;;;;;4995386;28;20022;-89
2023/03/11 00:24:00;;;;;;;3.72;1.25;;;3.30;99.90;;;;;;4995487;28;20026;-89
2023/03/11 00:26:28;;;;;;;4.88;0.73;;;2.50;99.90;;;;;;4994978;28;20038;-89
2023/03/11 00:29:00;;;;;;;8.70;0.95;;;3.30;99.90;;;;;;4995832;28;20030;-89
2023/03/11 00:31:41;;;;;;;8.50;1.10;;;3.30;99.90;;;;;;4995378;28;20045;-90
2023/03/11 00:34:19;;;;;;;2.55;1.00;;;3.50;99.90;;;;;;4995516;28;20026;-89
2023/03/11 00:36:48;;;;;;;1.35;0.60;;;3.30;99.90;;;;;;4995032;28;20030;-90
2023/03/11 00:39:19;;;;;;;9.20;1.02;;;3.30;99.90;;;;;;4994526;28;20084;-89
2023/03/11 00:41:51;;;;;;;5.85;1.15;;;3.10;99.90;;;;;;4994944;28;20019;-90
2023/03/11 00:44:23;;;;;;;14.50;1.60;;;2.60;99.90;;;;;;4994867;28;20027;-90
2023/03/11 00:46:56;;;;;;;15.57;1.90;;;2.70;99.90;;;;;;4996425;23;20471;-90
2023/03/11 00:49:31;;;;;;;11.68;1.20;;;2.80;99.90;;;;;;4970491;23;20576;-89
2023/03/11 00:52:01;;;;;;;5.53;1.17;;;3.20;99.90;;;;;;4992576;23;20057;-88
2023/03/11 00:54:36;;;;;;;10.15;1.52;;;3.30;99.90;;;;;;5049649;23;20047;-89
2023/03/11 00:57:10;;;;;;;10.10;1.27;;;3.50;99.90;;;;;;4994913;28;20475;-88
2023/03/11 00:59:39;;;;;;;6.75;1.65;;;2.90;99.90;;;;;;4995050;28;20030;-89
2023/03/11 01:02:11;;;;;;;6.07;1.15;;;3.50;99.90;;;;;;4994561;28;20065;-89
2023/03/11 01:04:45;;;;;;;7.75;1.50;;;3.30;99.90;;;;;;4994461;28;20018;-89
2023/03/11 01:07:17;;;;;;;9.25;1.48;;;3.20;99.90;;;;;;4993921;28;20141;-89
2023/03/11 01:09:52;;;;;;;9.20;1.13;;;2.90;99.90;;;;;;4994296;28;20025;-88
2023/03/11 01:12:20;;;;;;;3.97;1.20;;;3.60;99.90;;;;;;4994584;28;20030;-88
2023/03/11 01:14:54;;;;;;;8.57;1.50;;;3.60;99.90;;;;;;4993833;28;20081;-88
2023/03/11 01:17:29;;;;;;;7.45;1.50;;;3.50;99.90;;;;;;4994140;28;20030;-88
2023/03/11 01:19:58;;;;;;;7.40;1.38;;;2.80;99.90;;;;;;4994426;28;20026;-89
2023/03/11 01:22:29;;;;;;;7.45;1.23;;;3.60;99.90;;;;;;4993622;28;20026;-88
2023/03/11 01:25:01;;;;;;;9.02;1.05;;;3.50;99.90;;;;;;4994296;28;20046;-88
2023/03/11 01:30:09;;;;;;;9.80;1.30;;;3.00;99.90;;;;;;5010272;23;20444;-88
2023/03/11 01:35:12;;;;;;;9.88;1.73;;;3.00;99.90;;;;;;5003990;23;20061;-89
2023/03/11 01:43:42;;;;;;;;;;;3.00;99.90;;;;;;5013471;23;20093;-89
2023/03/11 01:46:21;;;;;;;5.00;1.27;;;3.00;99.90;;;;;;5180874;23;20370;-87
2023/03/11 01:49:30;;;;;;;6.47;1.00;;;3.00;99.90;;;;;;4993933;28;20061;-88
2023/03/11 01:52:02;;;;;;;4.95;1.02;;;3.00;99.90;;;;;;4933670;29;20050;-88
2023/03/11 01:54:30;;;;;;;5.45;1.08;;;3.70;99.90;;;;;;4933692;29;20031;-88
2023/03/11 02:00:44;;;;;;;2.27;1.07;;;3.60;99.90;;;;;;4944406;23;20043;-88
2023/03/11 02:03:50;;;;;;;11.15;1.00;;;2.50;99.90;;;;;;4929677;23;20320;-86
2023/03/11 02:06:24;;;;;;;5.47;0.80;;;3.10;99.90;;;;;;5144213;23;20076;-88
2023/03/11 02:11:26;;;;;;;7.28;0.85;;;3.00;99.90;;;;;;5011865;23;20137;-88
2023/03/11 02:16:23;;;;;;;6.32;0.80;;;3.10;99.90;;;;;;5029067;23;21352;-87
2023/03/11 02:21:31;;;;;;;3.83;0.95;;;3.20;99.90;;;;;;5005259;23;1121053;-88
2023/03/11 02:24:34;;;;;;;3.78;0.95;;;3.00;99.90;;;;;;4993574;28;20038;-88
2023/03/11 02:27:06;;;;;;;7.03;1.48;;;3.10;99.90;;;;;;4993513;28;20034;-87
2023/03/11 02:29:36;;;;;;;4.90;1.02;;;3.90;99.90;;;;;;4993246;28;20027;-88
2023/03/11 02:32:09;;;;;;;1.60;0.80;;;3.00;99.90;;;;;;4992687;28;20042;-87
2023/03/11 02:34:38;;;;;;;3.78;1.10;;;3.10;99.90;;;;;;4992849;28;20041;-88
2023/03/11 02:37:12;;;;;;;4.25;0.90;;;4.50;99.90;;;;;;4993421;28;20394;-88
2023/03/11 02:39:44;;;;;;;1.60;0.68;;;3.10;99.90;;;;;;4992555;28;20046;-87
2023/03/11 02:42:44;;;;;;;2.83;0.85;;;3.80;99.90;;;;;;4993328;28;20065;-89
2023/03/11 02:45:17;;;;;;;8.10;1.10;;;3.10;99.90;;;;;;4992855;28;20504;-90
2023/03/11 02:47:45;;;;;;;5.07;1.23;;;4.30;99.90;;;;;;4992691;28;20049;-87
2023/03/11 02:50:17;;;;;;;1.92;0.65;;;3.40;99.90;;;;;;4992813;28;20030;-89
2023/03/11 02:52:50;;;;;;;5.15;1.08;;;3.00;99.90;;;;;;4991984;28;20041;-86
2023/03/11 03:02:37;;;;;;;8.93;0.80;;;3.10;99.90;;;;;;4998954;23;20568;-89
2023/03/11 03:09:44;;;;;;;2.78;1.13;;;2.80;99.90;;;;;;4992338;28;20076;-88
2023/03/11 03:13:16;;;;;;;10.23;1.27;;;3.10;99.90;;;;;;4996230;28;20038;-88
2023/03/11 03:16:47;;;;;;;6.25;0.70;;;2.50;99.90;;;;;;4995511;28;20030;-88
2023/03/11 03:20:22;;;;;;;4.65;0.70;;;3.10;99.90;;;;;;4996609;28;20046;-88
2023/03/11 03:26:28;;;;;;;8.23;1.30;;;3.00;99.90;;;;;;4996298;28;20046;-87
2023/03/11 03:28:59;;;;;;;2.88;0.88;;;4.10;99.90;;;;;;4995446;28;20027;-88
2023/03/11 03:31:31;;;;;;;4.50;1.00;;;2.80;99.90;;;;;;4995833;28;20043;-89
2023/03/11 03:34:02;;;;;;;2.17;0.63;;;3.70;99.90;;;;;;4996159;28;20029;-89
2023/03/11 03:36:34;;;;;;;3.45;0.77;;;3.60;99.90;;;;;;4995517;28;20026;-88
2023/03/11 03:39:03;;;;;;;4.40;0.80;;;2.90;99.90;;;;;;4995911;28;20029;-90
2023/03/11 03:41:32;;;;;;;3.85;0.75;;;3.70;99.90;;;;;;4995775;28;20041;-89
2023/03/11 03:44:04;;;;;;;2.92;0.60;;;3.50;99.90;;;;;;4995699;28;20026;-88
2023/03/11 03:46:37;;;;;;;4.47;1.15;;;2.80;99.90;;;;;;4995635;28;20042;-89
2023/03/11 03:49:05;;;;;;;17.67;1.30;;;3.50;99.90;;;;;;4995310;28;20026;-89
2023/03/11 03:51:34;;;;;;;7.07;1.27;;;3.00;99.90;;;;;;4995284;28;20041;-87
2023/03/11 03:54:06;;;;;;;4.13;0.80;;;3.10;99.90;;;;;;4995698;28;20368;-89
2023/03/11 03:56:40;;;;;;;6.28;0.90;;;3.20;99.90;;;;;;4994831;28;20027;-88
2023/03/11 03:59:13;;;;;;;12.13;0.82;;;3.20;99.90;;;;;;4995707;28;20027;-89
2023/03/11 04:01:43;;;;;;;2.80;1.00;;;2.70;99.90;;;;;;5000859;23;20054;-87
2023/03/11 04:04:14;;;;;;;2.70;0.88;;;2.60;99.90;;;;;;5001077;23;20055;-87
2023/03/11 04:06:46;;;;;;;3.83;1.30;;;3.60;99.90;;;;;;5001454;23;20062;-87
2023/03/11 04:11:46;;;;;;;2.28;0.68;;;2.70;99.90;;;;;;5004945;23;20065;-87
2023/03/11 04:16:57;;;;;;;6.35;1.15;;;2.70;99.90;;;;;;5005943;23;20093;-87
2023/03/11 04:19:25;;;;;;;3.88;1.10;;;3.30;99.90;;;;;;4995105;28;20034;-87
2023/03/11 04:21:51;;;;;;;4.00;0.85;;;2.50;99.90;;;;;;5001570;23;20050;-88
2023/03/11 04:24:22;;;;;;;1.17;0.73;;;3.40;99.90;;;;;;5050656;23;20049;-89
2023/03/11 04:27:03;;;;;;;6.03;0.85;;;2.60;99.90;;;;;;5169443;23;20050;-87
2023/03/11 04:29:35;;;;;;;2.20;0.60;;;3.30;99.90;;;;;;4995218;28;20081;-90
2023/03/11 04:32:04;;;;;;;7.30;0.80;;;2.80;99.90;;;;;;4994743;28;20035;-87
2023/03/11 04:34:41;;;;;;;8.70;1.10;;;2.80;99.90;;;;;;4994912;28;20478;-86
2023/03/11 04:37:16;;;;;;;8.45;1.08;;;3.60;99.90;;;;;;4995419;28;20038;-89
2023/03/11 04:40:33;;;;;;;5.32;0.88;;;3.50;99.90;;;;;;5204603;23;20062;-87
2023/03/11 04:42:58;;;;;;;5.90;0.90;;;2.80;99.90;;;;;;5066368;23;20081;-89
2023/03/11 04:45:41;;;;;;;4.25;0.90;;;3.30;99.90;;;;;;5016158;23;20534;-89
2023/03/11 04:48:09;;;;;;;1.13;0.60;;;2.70;99.90;;;;;;5014392;28;20050;-89
2023/03/11 04:50:44;;;;;;;6.47;0.65;;;2.80;99.90;;;;;;5014251;28;20061;-89
2023/03/11 04:53:16;;;;;;;1.52;0.70;;;3.20;99.90;;;;;;5014006;28;20030;-88
2023/03/11 04:55:49;;;;;;;3.70;0.85;;;3.30;99.90;;;;;;5013764;28;20069;-89
2023/03/11 04:58:14;;;;;;;3.10;0.77;;;2.70;99.90;;;;;;5013999;28;20026;-88
2023/03/11 05:00:46;;;;;;;3.38;0.70;;;3.70;99.90;;;;;;5013391;28;20161;-89
2023/03/11 05:03:18;;;;;;;5.57;1.05;;;3.20;99.90;;;;;;5013795;28;20022;-89
2023/03/11 05:05:47;;;;;;;3.92;0.85;;;3.20;99.90;;;;;;5014185;28;20044;-88
2023/03/11 05:08:19;;;;;;;7.25;0.88;;;3.90;99.90;;;;;;5013352;28;20029;-89
2023/03/11 05:10:56;;;;;;;4.15;0.90;;;2.70;99.90;;;;;;5013751;28;20038;-88
2023/03/11 05:13:24;;;;;;;3.53;1.00;;;2.50;99.90;;;;;;5012838;28;20521;-89
2023/03/11 05:15:56;;;;;;;3.90;1.02;;;3.40;99.90;;;;;;5014005;28;20021;-89
2023/03/11 05:18:25;;;;;;;2.80;1.00;;;3.40;99.90;;;;;;5013542;28;20044;-88
2023/03/11 05:20:57;;;;;;;6.03;1.00;;;2.70;99.90;;;;;;5013111;28;20026;-88
2023/03/11 05:26:02;;;;;;;7.50;1.48;;;2.80;99.90;;;;;;4978787;23;20119;-88
2023/03/11 05:28:34;;;;;;;5.95;1.30;;;2.10;99.90;;;;;;5009783;23;20577;-88
2023/03/11 05:31:09;;;;;;;9.98;1.67;;;3.20;99.90;;;;;;5006248;23;20435;-89
2023/03/11 05:33:44;;;;;;;6.70;1.20;;;3.90;99.90;;;;;;4993449;28;20041;-89
2023/03/11 05:36:16;;;;;;;9.73;1.13;;;3.50;99.90;;;;;;4993530;28;20026;-89
2023/03/11 05:38:44;;;;;;;3.85;0.90;;;3.10;99.90;;;;;;4993833;28;20449;-89
2023/03/11 05:41:17;;;;;;;4.60;1.17;;;2.60;99.90;;;;;;4993238;28;20026;-88
2023/03/11 05:43:49;;;;;;;9.65;2.05;;;3.50;99.90;;;;;;4993832;28;20485;-89
2023/03/11 05:46:26;;;;;;;9.50;0.77;;;3.10;99.90;;;;;;4993726;28;20128;-88
2023/03/11 05:49:04;;;;;;;4.28;0.82;;;3.30;99.90;;;;;;4992566;28;20030;-89
2023/03/11 05:51:34;;;;;;;4.47;0.98;;;3.80;99.90;;;;;;4975929;28;20045;-89
2023/03/11 05:54:13;;;;;;;4.15;0.73;;;3.20;99.90;;;;;;4990131;28;20030;-89
2023/03/11 05:59:16;;;;;;;3.00;0.70;;;2.80;99.90;;;;;;5010064;23;20387;-88
2023/03/11 06:01:51;;;;;;;5.07;1.20;;;3.50;99.90;;;;;;4998279;23;20149;-87
2023/03/11 06:04:23;;;;;;;8.68;0.95;;;3.40;99.90;;;;;;4992329;28;20061;-88
2023/03/11 06:06:52;;;;;;;11.27;1.35;;;2.60;99.90;;;;;;4992822;28;20057;-90
2023/03/11 06:09:25;;;;;;;4.18;1.05;;;2.50;99.90;;;;;;4993070;28;20026;-87
2023/03/11 06:11:53;;;;;;;2.60;1.02;;;3.60;99.90;;;;;;4993136;28;20038;-90
2023/03/11 06:14:19;;;;;;;4.28;0.98;;;3.30;99.90;;;;;;4994091;28;20542;-90
2023/03/11 06:19:22;;;;;;;4.88;1.42;;;2.50;99.90;;;;;;5008704;23;20146;-89
2023/03/11 06:24:21;;;;;;;9.30;1.10;;;2.40;99.90;;;;;;5007102;23;20524;-88
2023/03/11 06:26:59;;;;;;;6.35;1.42;;;3.00;99.90;;;;;;4987830;23;20495;-87
2023/03/11 06:29:28;;;;;;;5.38;1.17;;;2.40;99.90;;;;;;4982342;28;20375;-89
2023/03/11 06:32:00;;;;;;;4.75;1.25;;;3.10;99.90;;;;;;4972865;28;20046;-89
2023/03/11 06:34:29;;;;;;;2.67;0.80;;;3.10;99.90;;;;;;4973324;28;20471;-88
2023/03/11 06:37:01;;;;;;;5.65;1.05;;;3.30;99.90;;;;;;4971464;28;20031;-89
2023/03/11 06:39:32;;;;;;;6.53;1.30;;;2.30;99.90;;;;;;4972811;28;20181;-90
2023/03/11 06:42:04;;;;;;;4.68;1.48;;;3.20;99.90;;;;;;4973599;28;20038;-89
2023/03/11 06:44:35;;;;;;;5.70;1.88;;;2.60;99.90;;;;;;4975628;28;20022;-89
2023/03/11 06:47:09;;;;;;;4.78;1.42;;;3.20;99.90;;;;;;4977314;28;20082;-90
2023/03/11 06:49:44;;;;;;;7.47;1.85;;;3.30;99.90;;;;;;4975320;28;20029;-89
2023/03/11 06:52:15;;;;;;;5.50;1.67;;;3.30;99.90;;;;;;4976507;28;20030;-89
2023/03/11 06:54:47;;;;;;;3.95;1.25;;;3.20;99.90;;;;;;4976838;28;20027;-88
2023/03/11 06:57:18;;;;;;;6.32;1.73;;;2.40;99.90;;;;;;4974834;28;20053;-89
2023/03/11 07:00:17;;;;;;;7.60;2.63;;;3.20;99.90;;;;;;4976023;28;20023;-89
2023/03/11 07:03:26;;;;;;;15.93;3.70;;;2.70;99.90;;;;;;4956898;28;20051;-89
2023/03/11 07:05:57;;;;;;;7.20;4.15;;;2.80;99.90;;;;;;4905629;29;20076;-89
2023/03/11 07:16:31;;;;;;;6.55;3.30;;;3.10;99.90;;;;;;5077742;23;20465;-87
2023/03/11 07:39:28;;;;;;;6.85;2.70;;;3.90;99.90;;;;;;4995746;28;20095;-88
2023/03/11 07:42:40;;;;;;;;;;;;;;;;;;;;;
2023/03/11 07:45:40;;;;;;;;;;;;;;;;;;;;;
2023/03/11 08:11:01;;;;;;;15.32;2.67;;;2.90;99.90;;;;;;4963913;28;20049;-90
2023/03/11 08:24:35;;;;;;;6.30;1.27;;;3.70;99.90;;;;;;4902832;29;20044;-89
2023/03/11 08:27:03;;;;;;;6.95;2.08;;;3.70;99.90;;;;;;4916061;29;20595;-89
2023/03/11 08:29:32;;;;;;;4.07;1.25;;;4.40;99.90;;;;;;4916258;29;20481;-91
2023/03/11 08:33:18;;;;;;;2.20;0.98;;;4.40;99.90;;;;;;4931799;29;20058;-91
2023/03/11 08:43:41;;;;;;;4.80;1.13;;;3.90;99.90;;;;;;4605751;23;20513;-85
2023/03/11 08:57:15;;;;;;;2.40;0.90;;;3.60;99.90;;;;;;5012735;23;20058;-88
2023/03/11 08:59:46;;;;;;;4.57;0.82;;;4.60;99.90;;;;;;4993979;28;20030;-89
2023/03/11 09:02:17;;;;;;;3.65;0.88;;;4.00;99.90;;;;;;4994714;28;20022;-89
2023/03/11 09:04:45;;;;;;;3.17;1.23;;;4.90;99.90;;;;;;4994305;28;20084;-89
2023/03/11 09:07:57;;;;;;;6.20;1.40;;;4.60;99.90;;;;;;4994291;28;20030;-88
2023/03/11 09:11:04;;;;;;;;;;;;;;;;;;;;;
2023/03/11 09:17:23;;;;;;;3.40;1.08;;;4.20;99.90;;;;;;4891004;29;20539;-86
2023/03/11 09:20:19;;;;;;;4.22;1.35;;;4.60;99.90;;;;;;4933735;29;20154;-90
2023/03/11 09:22:59;;;;;;;9.60;1.05;;;3.60;99.90;;;;;;4932812;29;20059;-86
2023/03/11 09:29:29;;;;;;;2.80;0.90;;;5.60;99.90;;;;;;4945207;29;20039;-89
2023/03/11 09:32:03;;;;;;;6.50;1.08;;;5.10;99.90;;;;;;4937491;29;20512;-90
2023/03/11 09:37:19;;;;;;;4.15;1.00;;;4.30;99.90;;;;;;5054341;23;20050;-88
2023/03/11 09:39:53;;;;;;;6.45;0.90;;;4.30;99.90;;;;;;4986723;28;20435;-88
2023/03/11 09:50:03;;;;;;;9.00;1.20;;;4.40;99.90;;;;;;4921038;28;20112;-88
2023/03/11 10:01:05;;;;;;;5.55;1.17;;;4.70;99.90;;;;;;5003965;23;20131;-87
2023/03/11 10:03:57;;;;;;;11.07;0.95;;;4.70;99.90;;;;;;4992418;28;20054;-89
2023/03/11 10:17:00;;;;;;;1.88;1.00;;;4.80;99.90;;;;;;5003331;23;20058;-89
2023/03/11 10:20:03;;;;;;;6.63;0.88;;;4.80;99.90;;;;;;4972230;28;20470;-93
2023/03/11 10:22:34;;;;;;;7.20;1.00;;;4.40;99.90;;;;;;4977000;28;20042;-87
2023/03/11 10:25:38;;;;;;;4.38;0.90;;;4.80;99.90;;;;;;5003897;28;20084;-88
2023/03/11 10:34:40;;;;;;;2.75;0.85;;;4.90;99.90;;;;;;5364748;23;20046;-92
2023/03/11 10:44:18;;;;;;;3.13;1.70;;;5.00;99.90;;;;;;4896211;29;20484;-90
2023/03/11 10:46:44;;;;;;;3.28;1.30;;;5.10;99.90;;;;;;4803821;29;20115;-94
2023/03/11 10:49:17;;;;;;;4.65;1.30;;;5.70;99.90;;;;;;4843064;29;20140;-94
2023/03/11 10:51:50;;;;;;;6.53;0.90;;;5.10;99.90;;;;;;4859289;29;20116;-94
2023/03/11 10:54:58;;;;;;;7.18;1.20;;;5.10;99.90;;;;;;4857451;29;20030;-91
2023/03/11 10:57:27;;;;;;;5.43;1.20;;;5.10;99.90;;;;;;4840229;29;20111;-95
2023/03/11 10:59:58;;;;;;;6.43;1.45;;;5.10;99.90;;;;;;4957820;23;20054;-93
2023/03/11 11:02:26;;;;;;;3.72;1.17;;;5.10;99.90;;;;;;4962291;28;20114;-92
2023/03/11 11:08:15;;;;;;;4.47;1.00;;;5.10;99.90;;;;;;5022191;23;20186;-95
2023/03/11 11:10:55;;;;;;;8.65;0.90;;;5.20;99.90;;;;;;4994382;28;20030;-91
2023/03/11 11:13:26;;;;;;;2.95;1.02;;;5.40;99.90;;;;;;4993706;28;20595;-91
2023/03/11 11:16:19;;;;;;;10.13;1.02;;;5.10;99.90;;;;;;4993858;28;20482;-91
2023/03/11 11:18:54;;;;;;;2.38;0.85;;;5.20;99.90;;;;;;5005429;28;20038;-89
2023/03/11 11:21:42;;;;;;;9.57;1.13;;;5.20;99.90;;;;;;5013543;28;20029;-91
2023/03/11 11:24:10;;;;;;;4.55;1.10;;;5.10;99.90;;;;;;5013843;28;20062;-91
2023/03/11 11:26:35;;;;;;;3.22;0.75;;;5.10;99.90;;;;;;5013688;28;20026;-91
2023/03/11 11:29:50;;;;;;;4.72;0.93;;;5.20;99.90;;;;;;5013861;28;20108;-90
2023/03/11 11:32:25;;;;;;;4.78;0.85;;;5.20;99.90;;;;;;5017473;28;20046;-91
2023/03/11 11:37:30;;;;;;;5.03;1.13;;;5.20;99.90;;;;;;5057707;23;20598;-91
2023/03/11 11:43:33;;;;;;;5.70;1.00;;;5.30;99.90;;;;;;5002468;23;20065;-89
2023/03/11 11:51:23;;;;;;;7.40;1.00;;;5.40;99.90;;;;;;4651577;23;20042;-87
2023/03/11 11:54:23;;;;;;;5.65;1.30;;;6.10;99.90;;;;;;4976786;28;20062;-88
2023/03/11 11:56:55;;;;;;;2.30;1.00;;;5.30;99.90;;;;;;4976483;28;20034;-88
2023/03/11 11:59:24;;;;;;;6.47;1.10;;;6.70;99.90;;;;;;4976188;28;20118;-88
2023/03/11 12:02:28;;;;;;;6.03;1.70;;;6.10;99.90;;;;;;4976110;28;20109;-88
2023/03/11 12:05:29;;;;;;;7.03;1.67;;;5.50;99.90;;;;;;4976427;28;20070;-88
2023/03/11 12:08:28;;;;;;;7.45;1.30;;;5.50;99.90;;;;;;4976516;28;20394;-88
2023/03/11 12:11:03;;;;;;;9.73;1.23;;;5.60;99.90;;;;;;4976029;28;20118;-88
2023/03/11 12:14:06;;;;;;;5.55;1.02;;;6.20;99.90;;;;;;4976395;28;20471;-86
2023/03/11 12:17:07;;;;;;;25.77;1.45;;;5.70;99.90;;;;;;4975379;28;20462;-87
2023/03/11 12:20:33;;;;;;;8.10;1.45;;;5.70;99.90;;;;;;4975831;28;20031;-88
2023/03/11 12:23:31;;;;;;;5.00;2.15;;;5.70;99.90;;;;;;4932518;29;20447;-87
2023/03/11 12:26:22;;;;;;;4.75;1.05;;;5.80;99.90;;;;;;4934319;29;20467;-89
2023/03/11 12:36:01;;;;;;;7.53;1.58;;;5.60;99.90;;;;;;4897908;29;20585;-87
2023/03/11 12:38:52;;;;;;;3.67;1.35;;;6.00;99.90;;;;;;4908978;23;20033;-91
2023/03/11 12:41:50;;;;;;;8.77;1.63;;;6.10;99.90;;;;;;4987713;23;20085;-89
2023/03/11 12:44:31;;;;;;;6.50;1.33;;;6.20;99.90;;;;;;4982217;23;20534;-91
2023/03/11 12:47:03;;;;;;;;;;;6.90;99.90;;;;;;4949969;29;20580;-89
2023/03/11 12:49:36;;;;;;;7.55;2.67;;;6.80;99.90;;;;;;4957092;29;20017;-90
2023/03/11 12:52:12;;;;;;;6.75;1.33;;;6.60;99.90;;;;;;4956824;28;20038;-92
2023/03/11 12:54:39;;;;;;;6.75;2.08;;;6.20;99.90;;;;;;4957116;29;20089;-92
2023/03/11 12:57:16;;;;;;;4.97;1.15;;;6.20;99.90;;;;;;4957942;29;20038;-92
2023/03/11 13:00:21;;;;;;;6.53;1.25;;;6.20;99.90;;;;;;4956998;29;20031;-92
2023/03/11 13:03:15;;;;;;;;;;;;;;;;;;;;;
2023/03/11 13:06:33;;;;;;;6.70;1.55;;;7.20;99.90;;;;;;4928529;28;20042;-90
2023/03/11 13:09:03;;;;;;;9.70;1.52;;;5.90;99.90;;;;;;4995895;28;20031;-92
2023/03/11 13:11:45;;;;;;;4.10;1.17;;;5.90;99.90;;;;;;4995650;28;20382;-89
2023/03/11 13:14:13;;;;;;;5.90;1.30;;;6.50;99.90;;;;;;4995622;28;20054;-92
2023/03/11 13:17:46;;;;;;;4.70;1.63;;;6.60;99.90;;;;;;4995256;28;20026;-94
2023/03/11 13:30:26;;;;;;;1.75;0.80;;;6.20;98.60;;;;;;5600481;23;20073;31
2023/03/11 13:37:16;;;;;;;4.50;1.02;;;6.40;99.90;;;;;;5150750;23;20053;-91
2023/03/11 13:40:44;;;;;;;2.92;1.17;;;6.70;99.90;;;;;;4988655;23;20050;-92
2023/03/11 13:43:19;;;;;;;5.13;1.27;;;6.70;99.90;;;;;;4993098;28;20397;-94
2023/03/11 13:49:53;;;;;;;2.90;0.80;;;6.50;99.90;;;;;;4993919;28;20068;-92
2023/03/11 13:52:36;;;;;;;;;;;;;;;;;;;;;
2023/03/11 13:55:26;;;;;;;1.83;0.88;;;7.80;99.90;;;;;;4941418;28;20034;-91
2023/03/11 13:58:23;;;;;;;6.40;0.77;;;7.00;99.30;;;;;;4991204;28;20038;-93
2023/03/11 14:01:24;;;;;;;4.93;1.08;;;7.80;98.70;;;;;;4929237;29;20032;-92
2023/03/11 14:04:08;;;;;;;;;;;;;;;;;;;;;
2023/03/11 14:07:37;;;;;;;5.13;1.08;;;8.00;99.40;;;;;;4836150;29;20503;-91
2023/03/11 14:10:34;;;;;;;5.68;1.20;;;7.40;99.90;;;;;;4818207;29;20042;-89
2023/03/11 14:18:39;;;;;;;3.88;0.70;;;7.20;97.50;;;;;;4987349;28;20065;-88
2023/03/11 14:21:25;;;;;;;2.90;0.68;;;6.50;96.60;;;;;;4993296;28;20037;-89
2023/03/11 14:24:03;;;;;;;2.58;0.80;;;7.10;98.00;;;;;;4992553;28;20469;-92
2023/03/11 14:26:41;;;;;;;2.35;0.60;;;7.00;97.30;;;;;;5024210;23;20058;-92
2023/03/11 14:42:17;;;;;;;;;;;;;;;;;;;;;
2023/03/11 14:45:35;;;;;;;3.33;0.50;;;7.10;95.30;;;;;;4938591;28;20034;-88
2023/03/11 14:48:36;;;;;;;4.90;0.70;;;7.20;94.20;;;;;;4989993;28;20162;-88
2023/03/11 14:51:32;;;;;;;5.30;1.20;;;7.60;94.60;;;;;;4992277;28;20030;-87
2023/03/11 14:54:35;;;;;;;3.10;1.15;;;7.20;93.50;;;;;;4932836;29;20043;-87
2023/03/11 14:57:36;;;;;;;3.10;0.70;;;7.60;94.30;;;;;;4932530;29;20031;-88
2023/03/11 15:00:36;;;;;;;1.95;0.70;;;7.80;94.40;;;;;;4993019;28;20077;-88
2023/03/11 15:03:36;;;;;;;2.28;0.60;;;7.90;93.60;;;;;;4992958;28;20109;-88
2023/03/11 15:12:44;;;;;;;2.78;0.80;;;8.50;94.50;;;;;;4995722;28;20097;-87
2023/03/11 15:15:50;;;;;;;2.05;0.65;;;8.10;95.70;;;;;;4996417;28;20018;-88
2023/03/11 15:19:14;;;;;;;4.75;0.77;;;8.20;95.70;;;;;;4935647;29;20071;-90
2023/03/11 15:28:27;;;;;;;3.70;0.88;;;9.00;94.40;;;;;;4932796;29;20028;-87
2023/03/11 15:31:29;;;;;;;7.72;0.77;;;9.80;93.90;;;;;;4936997;29;20034;-89
2023/03/11 15:39:37;;;;;;;3.00;0.68;;;9.00;91.90;;;;;;4917662;23;20036;-87
2023/03/11 15:49:44;;;;;;;3.00;0.80;;;8.60;94.50;;;;;;5029160;23;20060;-87
2023/03/11 15:55:21;;;;;;;3.92;1.10;;;9.30;92.30;;;;;;4995636;28;20101;-87
2023/03/11 15:58:20;;;;;;;5.03;1.10;;;9.40;92.50;;;;;;4995653;28;20073;-87
2023/03/11 16:00:55;;;;;;;3.00;0.70;;;8.10;91.80;;;;;;4995129;28;20031;-87
2023/03/11 16:03:26;;;;;;;1.33;0.68;;;9.00;92.20;;;;;;4985998;28;20101;-90
2023/03/11 16:07:02;;;;;;;;;;;;;;;;;;;;;
2023/03/11 16:09:54;;;;;;;3.72;0.90;;;8.60;95.10;;;;;;4891761;29;20063;-90
2023/03/11 16:15:57;;;;;;;8.88;2.72;;;8.50;94.20;;;;;;4907253;29;20134;-91
2023/03/11 16:18:26;;;;;;;2.92;0.60;;;9.30;93.50;;;;;;4915821;29;20044;-92
2023/03/11 16:21:26;;;;;;;3.28;0.77;;;9.80;92.60;;;;;;4917232;29;20028;-88
2023/03/11 16:24:05;;;;;;;4.85;0.73;;;8.70;92.40;;;;;;4917328;29;20043;-90
2023/03/11 16:41:30;;;;;;;5.32;1.90;;;8.20;94.80;;;;;;4995364;28;20036;-89
2023/03/11 16:47:37;;;;;;;3.15;1.83;;;8.00;95.80;;;;;;4923477;29;20156;-88
2023/03/11 16:53:33;;;;;;;3.35;1.27;;;8.00;96.70;;;;;;4967919;23;19972;-89
2023/03/11 16:56:05;;;;;;;3.65;1.27;;;7.40;96.10;;;;;;4986272;28;20042;-90
2023/03/11 16:59:05;;;;;;;3.97;1.27;;;7.90;97.10;;;;;;4985016;28;20449;-90
2023/03/11 17:01:41;;;;;;;3.22;1.83;;;8.80;96.90;;;;;;4988511;28;20113;-90
2023/03/11 17:11:43;;;;;;;4.28;1.50;;;7.80;96.70;;;;;;4945125;29;20024;-91
2023/03/11 17:14:17;;;;;;;4.07;1.60;;;7.40;96.70;;;;;;4946229;29;20032;-86
2023/03/11 17:17:15;;;;;;;2.28;1.80;;;7.00;96.80;;;;;;4949638;29;20027;-91
2023/03/11 17:19:47;;;;;;;2.50;1.58;;;7.10;97.20;;;;;;4928122;29;20058;-89
2023/03/11 17:28:49;;;;;;;7.53;2.55;;;8.10;96.80;;;;;;4896345;29;20039;-88
2023/03/11 17:31:50;;;;;;;9.02;3.10;;;7.50;96.80;;;;;;4841113;29;20125;-90
2023/03/11 17:34:18;;;;;;;5.20;2.80;;;7.40;97.20;;;;;;4888523;29;20060;-91
2023/03/11 17:36:56;;;;;;;8.20;2.50;;;8.10;98.00;;;;;;4906607;29;20032;-91
2023/03/11 17:39:46;;;;;;;5.18;2.75;;;7.70;97.90;;;;;;4943116;23;20200;-90
2023/03/11 17:42:14;;;;;;;3.97;2.45;;;6.70;98.00;;;;;;4994599;28;20019;-92
2023/03/11 17:47:49;;;;;;;15.07;7.00;;;7.30;99.10;;;;;;4963005;28;20046;-91
2023/03/11 17:50:21;;;;;;;14.60;6.90;;;7.00;99.80;;;;;;5005066;28;20466;-91
2023/03/11 17:52:55;;;;;;;13.73;7.53;;;8.10;99.90;;;;;;4988310;28;20029;-90
2023/03/11 17:55:26;;;;;;;12.38;6.07;;;7.20;99.90;;;;;;4987351;28;20482;-90
2023/03/11 17:57:54;;;;;;;7.90;3.95;;;7.20;99.90;;;;;;4988669;28;20026;-90
2023/03/11 18:00:35;;;;;;;6.63;3.55;;;6.50;99.90;;;;;;5006228;28;20022;-90
2023/03/11 18:03:07;;;;;;;4.10;2.42;;;7.50;99.70;;;;;;5014860;23;20089;-91
2023/03/11 18:08:12;;;;;;;4.90;2.50;;;6.60;98.40;;;;;;5026159;23;20831;-90
2023/03/11 18:13:13;;;;;;;36.67;11.88;;;6.50;99.30;;;;;;5011142;23;20085;-88
2023/03/11 18:15:43;;;;;;;28.17;11.45;;;7.60;99.60;;;;;;5009389;23;20053;-89
2023/03/11 18:18:14;;;;;;;31.08;12.50;;;7.30;99.00;;;;;;5007422;23;20066;-91
2023/03/11 18:20:49;;;;;;;15.45;7.90;;;7.00;98.90;;;;;;5004687;23;20038;-91
2023/03/11 18:23:18;;;;;;;13.88;5.30;;;6.60;99.30;;;;;;4999063;28;20031;-90
2023/03/11 18:25:55;;;;;;;7.35;4.32;;;7.10;99.90;;;;;;5003111;28;20092;-91
2023/03/11 18:28:36;;;;;;;14.18;5.50;;;7.20;99.90;;;;;;5002619;28;20018;-90
2023/03/11 18:31:08;;;;;;;9.27;5.25;;;7.10;99.90;;;;;;4998794;28;20116;-91
2023/03/11 18:33:49;;;;;;;13.25;5.45;;;6.20;99.90;;;;;;5006806;23;20413;-91
2023/03/11 18:36:23;;;;;;;8.27;4.57;;;6.40;99.90;;;;;;4975304;23;20038;-90
2023/03/11 18:41:17;;;;;;;8.98;4.13;;;6.30;99.90;;;;;;5012277;23;20121;-90
2023/03/11 18:46:20;;;;;;;7.85;3.90;;;6.30;99.90;;;;;;5012948;23;20474;-89
2023/03/11 18:51:27;;;;;;;9.70;4.80;;;6.30;99.90;;;;;;5126748;23;20037;-91
2023/03/11 18:53:56;;;;;;;9.68;3.50;;;7.00;99.90;;;;;;4991026;28;20062;-90
2023/03/11 18:56:31;;;;;;;8.77;3.97;;;6.80;99.90;;;;;;4988153;28;20019;-91
2023/03/11 18:59:03;;;;;;;12.20;4.28;;;6.90;99.90;;;;;;4988721;28;20022;-89
2023/03/11 19:01:34;;;;;;;9.75;4.25;;;6.30;99.90;;;;;;4994234;28;20030;-89
2023/03/11 19:04:05;;;;;;;14.25;4.70;;;6.30;99.90;;;;;;4996724;28;20019;-89
2023/03/11 19:06:35;;;;;;;13.40;4.28;;;6.90;99.90;;;;;;4997504;28;20018;-91
2023/03/11 19:09:07;;;;;;;9.60;5.00;;;6.70;99.90;;;;;;4997370;28;20045;-88
2023/03/11 19:11:38;;;;;;;16.08;5.90;;;7.00;99.90;;;;;;4996567;28;20023;-91
2023/03/11 19:14:16;;;;;;;14.30;6.43;;;6.70;99.90;;;;;;4984377;28;20034;-89
2023/03/11 19:16:48;;;;;;;16.52;7.53;;;6.60;99.90;;;;;;4996629;28;20050;-89
2023/03/11 19:19:17;;;;;;;28.85;10.80;;;6.80;99.90;;;;;;4996237;28;20026;-89
2023/03/11 19:24:42;;;;;;;11.80;6.30;;;6.00;99.90;;;;;;5199445;23;20477;-90
2023/03/11 19:27:10;;;;;;;23.52;7.40;;;6.60;99.90;;;;;;5002499;28;20117;-89
2023/03/11 19:29:39;;;;;;;13.45;5.85;;;6.50;99.90;;;;;;4997440;28;20114;-89
2023/03/11 19:32:11;;;;;;;13.35;7.40;;;6.60;99.90;;;;;;4996250;28;20053;-87
2023/03/11 19:34:39;;;;;;;17.25;7.40;;;6.60;99.90;;;;;;4997108;28;20022;-90
2023/03/11 19:39:33;;;;;;;20.75;9.18;;;6.00;99.90;;;;;;5051667;23;20065;-89